Time;durP1;ratioP1;P1;durP2;ratioP2;P2;SDS_P1;SDS_P2;PMS_P1;PMS_P2;Temp;Humidity;BMP_temperature;BMP_pressure;BME280_temperature;BME280_humidity;BME280_pressure;Samples;Min_cycle;Max_cycle;Signal;HPM_P1;HPM_P2
2022/12/02 00:00:49;;;;;;;46.50;23.83;;;3.20;99.90;;;;;;5067265;28;20062;-58
2022/12/02 00:03:20;;;;;;;43.75;24.00;;;3.20;99.90;;;;;;5066931;28;20082;-60
2022/12/02 00:05:49;;;;;;;45.90;23.75;;;3.20;99.90;;;;;;5065796;28;20045;-58
2022/12/02 00:08:23;;;;;;;48.03;25.40;;;3.20;99.90;;;;;;5064455;28;20044;-59
2022/12/02 00:10:52;;;;;;;45.72;23.30;;;3.20;99.90;;;;;;5065770;28;20163;-59
2022/12/02 00:13:27;;;;;;;44.72;24.08;;;3.20;99.90;;;;;;5067457;28;20036;-59
2022/12/02 00:15:57;;;;;;;51.92;26.50;;;3.20;99.90;;;;;;5070237;28;20093;-59
2022/12/02 00:18:24;;;;;;;47.58;25.38;;;3.20;99.90;;;;;;5068265;28;20666;-58
2022/12/02 00:20:50;;;;;;;53.28;26.30;;;3.20;99.90;;;;;;5073205;28;20517;-58
2022/12/02 00:23:16;;;;;;;49.35;25.52;;;3.10;99.90;;;;;;5067472;28;20053;-58
2022/12/02 00:25:45;;;;;;;52.55;26.25;;;3.20;99.90;;;;;;5064782;28;21702;-58
2022/12/02 00:28:12;;;;;;;52.55;25.50;;;3.20;99.90;;;;;;5064355;28;20141;-59
2022/12/02 00:30:37;;;;;;;51.83;25.35;;;3.10;99.90;;;;;;5081521;28;20479;-59
2022/12/02 00:33:03;;;;;;;50.80;26.38;;;3.10;99.90;;;;;;5070048;28;20043;-59
2022/12/02 00:35:29;;;;;;;49.78;25.77;;;3.10;99.90;;;;;;5065887;28;20498;-58
2022/12/02 00:37:55;;;;;;;49.58;25.70;;;3.10;99.90;;;;;;5069277;28;20037;-58
2022/12/02 00:40:21;;;;;;;55.63;26.95;;;3.20;99.90;;;;;;5064930;28;20040;-60
2022/12/02 00:42:46;;;;;;;49.30;26.73;;;3.10;99.90;;;;;;5068545;28;20048;-57
2022/12/02 00:47:58;;;;;;;48.60;24.70;;;3.10;99.90;;;;;;5068363;28;20048;-59
2022/12/02 00:50:24;;;;;;;53.83;26.73;;;3.10;99.90;;;;;;5067820;28;20104;-59
2022/12/02 00:52:50;;;;;;;47.03;26.85;;;3.10;99.90;;;;;;5063206;28;20051;-58
2022/12/02 00:55:16;;;;;;;51.00;25.77;;;3.20;99.90;;;;;;5065977;28;20040;-59
2022/12/02 00:57:42;;;;;;;52.85;26.42;;;3.20;99.90;;;;;;5065300;28;20048;-59
2022/12/02 01:00:08;;;;;;;54.67;26.10;;;3.20;99.90;;;;;;5066239;28;20383;-58
2022/12/02 01:02:34;;;;;;;53.20;26.63;;;3.10;99.90;;;;;;5066370;28;20106;-58
2022/12/02 01:05:00;;;;;;;52.08;26.13;;;3.10;99.90;;;;;;5064328;28;20059;-59
2022/12/02 01:07:26;;;;;;;54.13;26.40;;;3.10;99.90;;;;;;5063294;28;20559;-58
2022/12/02 01:09:52;;;;;;;53.78;25.98;;;3.10;99.90;;;;;;5060924;28;20076;-58
2022/12/02 01:12:18;;;;;;;54.40;26.38;;;3.10;99.90;;;;;;5058418;28;20128;-58
2022/12/02 01:14:43;;;;;;;46.88;24.33;;;3.20;99.90;;;;;;5045105;28;20044;-60
2022/12/02 01:17:09;;;;;;;51.15;24.23;;;3.10;99.90;;;;;;5060892;28;20122;-60
2022/12/02 01:19:35;;;;;;;52.42;24.83;;;3.10;99.90;;;;;;5063325;28;20597;-59
2022/12/02 01:22:01;;;;;;;48.78;23.33;;;3.20;99.90;;;;;;5063823;28;20139;-59
2022/12/02 01:24:26;;;;;;;49.45;23.80;;;3.10;99.90;;;;;;5060770;28;20124;-58
2022/12/02 01:26:52;;;;;;;50.10;24.55;;;3.10;99.90;;;;;;5060766;28;20131;-58
2022/12/02 01:29:18;;;;;;;51.08;23.05;;;3.10;99.90;;;;;;5060207;28;20552;-58
2022/12/02 01:31:44;;;;;;;48.40;23.77;;;3.10;99.90;;;;;;5067180;28;20103;-59
2022/12/02 01:34:09;;;;;;;46.97;22.67;;;3.10;99.90;;;;;;5064626;28;20475;-59
2022/12/02 01:36:35;;;;;;;52.63;24.10;;;3.10;99.90;;;;;;5065759;28;20036;-58
2022/12/02 01:39:01;;;;;;;47.33;23.52;;;3.10;99.90;;;;;;5060357;28;20079;-58
2022/12/02 01:41:27;;;;;;;51.63;25.20;;;3.00;99.90;;;;;;5065138;28;20432;-59
2022/12/02 01:43:53;;;;;;;54.67;25.40;;;3.10;99.90;;;;;;5066499;28;20474;-59
2022/12/02 01:46:18;;;;;;;50.72;24.25;;;3.00;99.90;;;;;;5066700;28;20051;-59
2022/12/02 01:48:44;;;;;;;52.55;23.52;;;3.00;99.90;;;;;;5067914;28;20127;-59
2022/12/02 01:51:10;;;;;;;49.65;24.27;;;3.00;99.90;;;;;;5069155;28;20968;-58
2022/12/02 01:53:36;;;;;;;49.42;23.63;;;3.00;99.90;;;;;;5062281;28;20048;-62
2022/12/02 01:56:03;;;;;;;52.72;24.05;;;3.10;99.90;;;;;;5063785;28;20055;-62
2022/12/02 01:58:30;;;;;;;58.13;24.05;;;3.00;99.90;;;;;;5045141;28;20047;-61
2022/12/02 02:00:56;;;;;;;53.65;25.00;;;3.00;99.90;;;;;;5064755;28;20556;-63
2022/12/02 02:03:22;;;;;;;52.08;24.23;;;3.00;99.90;;;;;;5063884;28;20044;-61
2022/12/02 02:05:49;;;;;;;52.03;24.30;;;3.00;99.90;;;;;;5060336;28;20037;-61
2022/12/02 02:08:16;;;;;;;53.85;24.00;;;3.00;99.90;;;;;;5062964;28;20052;-62
2022/12/02 02:10:43;;;;;;;56.78;24.85;;;3.00;99.90;;;;;;5062300;28;20055;-62
2022/12/02 02:13:12;;;;;;;53.90;25.30;;;3.00;99.90;;;;;;5059730;28;20044;-61
2022/12/02 02:15:40;;;;;;;56.67;25.83;;;3.00;99.90;;;;;;5061947;28;21099;-62
2022/12/02 02:18:06;;;;;;;52.08;23.98;;;3.00;99.90;;;;;;5065185;28;20478;-62
2022/12/02 02:20:34;;;;;;;56.70;25.10;;;3.00;99.90;;;;;;5066582;28;20131;-62
2022/12/02 02:23:06;;;;;;;56.10;25.23;;;3.00;99.90;;;;;;5062278;28;20446;-61
2022/12/02 02:25:36;;;;;;;54.95;25.30;;;2.90;99.90;;;;;;5066899;28;20051;-61
2022/12/02 02:28:02;;;;;;;58.05;25.88;;;2.90;99.90;;;;;;5066821;28;20047;-61
2022/12/02 02:30:31;;;;;;;52.08;23.92;;;2.90;99.90;;;;;;5067554;28;20048;-61
2022/12/02 02:32:57;;;;;;;57.60;26.13;;;2.90;99.90;;;;;;5068083;28;20396;-60
2022/12/02 02:35:23;;;;;;;57.58;25.83;;;2.90;99.90;;;;;;5068080;28;20116;-61
2022/12/02 02:37:52;;;;;;;53.17;24.83;;;2.90;99.90;;;;;;5067116;28;20035;-62
2022/12/02 02:40:20;;;;;;;57.63;25.63;;;2.90;99.90;;;;;;5056649;28;20048;-62
2022/12/02 02:42:50;;;;;;;61.15;26.25;;;3.00;99.90;;;;;;5066100;28;20048;-62
2022/12/02 02:45:17;;;;;;;52.22;24.60;;;2.90;99.90;;;;;;5071182;28;20600;-62
2022/12/02 02:47:43;;;;;;;57.38;26.27;;;2.90;99.90;;;;;;5070219;28;20102;-62
2022/12/02 02:50:09;;;;;;;65.78;27.75;;;3.00;99.90;;;;;;5070347;28;20142;-62
2022/12/02 02:52:35;;;;;;;58.00;26.73;;;2.90;99.90;;;;;;5068815;28;20514;-62
2022/12/02 02:55:01;;;;;;;57.10;25.90;;;3.00;99.90;;;;;;5069564;28;20053;-62
2022/12/02 02:57:27;;;;;;;54.30;25.02;;;2.90;99.90;;;;;;5083701;27;20044;-62
2022/12/02 02:59:55;;;;;;;56.47;26.13;;;2.90;99.90;;;;;;5066296;28;20078;-62
2022/12/02 03:02:22;;;;;;;57.72;26.02;;;2.90;99.90;;;;;;5060146;28;20102;-62
2022/12/02 03:04:49;;;;;;;59.20;25.13;;;3.00;99.90;;;;;;5046465;28;20502;-62
2022/12/02 03:07:15;;;;;;;55.40;26.02;;;2.90;99.90;;;;;;5064569;28;20052;-61
2022/12/02 03:09:41;;;;;;;47.60;22.63;;;2.90;99.90;;;;;;5065906;28;20603;-61
2022/12/02 03:12:08;;;;;;;46.03;21.90;;;2.90;99.90;;;;;;5044220;28;20052;-62
2022/12/02 03:14:34;;;;;;;47.97;22.05;;;2.90;99.90;;;;;;5063785;28;20047;-61
2022/12/02 03:17:01;;;;;;;46.72;21.98;;;2.90;99.90;;;;;;5065008;28;20654;-62
2022/12/02 03:19:30;;;;;;;46.97;22.70;;;2.90;99.90;;;;;;5065311;28;20043;-61
2022/12/02 03:21:57;;;;;;;43.58;21.25;;;2.80;99.90;;;;;;5061969;28;20067;-64
2022/12/02 03:24:23;;;;;;;44.97;21.10;;;2.80;99.90;;;;;;5063312;28;20044;-61
2022/12/02 03:26:49;;;;;;;47.17;23.33;;;2.90;99.90;;;;;;5061948;28;20047;-62
2022/12/02 03:29:16;;;;;;;44.67;20.40;;;2.90;99.90;;;;;;5065528;28;20056;-61
2022/12/02 03:31:43;;;;;;;39.40;19.10;;;2.80;99.90;;;;;;5063619;28;20102;-62
2022/12/02 03:34:09;;;;;;;43.28;20.83;;;2.80;99.90;;;;;;5061245;28;20132;-62
2022/12/02 03:36:36;;;;;;;45.33;20.77;;;2.80;99.90;;;;;;5052973;28;20051;-63
2022/12/02 03:39:02;;;;;;;44.53;19.98;;;2.80;99.90;;;;;;5069571;28;20086;-63
2022/12/02 03:41:28;;;;;;;43.90;20.52;;;2.80;99.90;;;;;;5068242;28;20119;-61
2022/12/02 03:43:55;;;;;;;43.45;21.42;;;2.70;99.90;;;;;;5066746;28;20052;-62
2022/12/02 03:46:22;;;;;;;47.05;22.17;;;2.70;99.90;;;;;;5069008;28;20440;-62
2022/12/02 03:48:48;;;;;;;44.22;21.83;;;2.70;99.90;;;;;;5067499;28;20065;-62
2022/12/02 03:51:15;;;;;;;52.00;22.92;;;2.70;99.90;;;;;;5072644;28;20040;-62
2022/12/02 03:53:41;;;;;;;45.85;22.08;;;2.80;99.90;;;;;;5068763;28;20188;-61
2022/12/02 03:56:08;;;;;;;51.72;22.88;;;2.70;99.90;;;;;;5064742;28;20149;-61
2022/12/02 03:58:43;;;;;;;45.72;22.65;;;2.70;99.90;;;;;;5063601;28;20179;-62
2022/12/02 04:01:09;;;;;;;50.85;23.00;;;2.70;99.90;;;;;;5066773;28;20045;-61
2022/12/02 04:03:34;;;;;;;45.95;21.88;;;2.70;99.90;;;;;;5047636;28;20048;-62
2022/12/02 04:06:00;;;;;;;51.20;23.10;;;2.70;99.90;;;;;;5061719;28;20062;-62
2022/12/02 04:08:26;;;;;;;48.80;23.13;;;2.70;99.90;;;;;;5068170;28;20045;-61
2022/12/02 04:10:52;;;;;;;45.47;21.65;;;2.70;99.90;;;;;;5064132;28;20495;-63
2022/12/02 04:13:18;;;;;;;49.40;22.20;;;2.70;99.90;;;;;;5062532;28;20127;-62
2022/12/02 04:15:44;;;;;;;53.22;23.02;;;2.60;99.90;;;;;;5065874;28;20071;-62
2022/12/02 04:18:10;;;;;;;47.05;22.52;;;2.70;99.90;;;;;;5067708;28;20053;-61
2022/12/02 04:20:35;;;;;;;49.55;22.83;;;2.70;99.90;;;;;;5066958;28;20044;-62
2022/12/02 04:23:02;;;;;;;49.47;22.55;;;2.70;99.90;;;;;;5065637;28;20051;-61
2022/12/02 04:25:27;;;;;;;48.72;22.42;;;2.70;99.90;;;;;;5065890;28;20036;-62
2022/12/02 04:27:53;;;;;;;49.33;22.45;;;2.70;99.90;;;;;;5032535;28;20105;-61
2022/12/02 04:30:19;;;;;;;52.38;23.45;;;2.70;99.90;;;;;;5061905;28;20048;-62
2022/12/02 04:32:45;;;;;;;50.67;24.40;;;2.70;99.90;;;;;;5069260;28;20044;-61
2022/12/02 04:35:11;;;;;;;52.45;23.98;;;2.70;99.90;;;;;;5063065;28;20052;-61
2022/12/02 04:37:36;;;;;;;51.08;23.50;;;2.70;99.90;;;;;;5067423;28;20527;-61
2022/12/02 04:40:03;;;;;;;55.95;24.73;;;2.70;99.90;;;;;;5063587;28;20835;-61
2022/12/02 04:42:29;;;;;;;52.33;23.95;;;2.70;99.90;;;;;;5066148;28;20067;-61
2022/12/02 04:44:55;;;;;;;51.95;24.33;;;2.70;99.90;;;;;;5064604;28;20131;-62
2022/12/02 04:47:20;;;;;;;48.30;22.83;;;2.70;99.90;;;;;;5069179;28;20099;-61
2022/12/02 04:49:46;;;;;;;51.78;24.27;;;2.70;99.90;;;;;;5065710;28;20036;-62
2022/12/02 04:52:12;;;;;;;54.25;24.85;;;2.70;99.90;;;;;;5068379;28;20399;-62
2022/12/02 04:54:38;;;;;;;63.72;25.35;;;2.70;99.90;;;;;;5063389;28;20057;-61
2022/12/02 04:57:04;;;;;;;56.92;25.27;;;2.70;99.90;;;;;;5065335;28;20131;-61
2022/12/02 04:59:29;;;;;;;54.55;25.02;;;2.80;99.90;;;;;;5064079;28;20534;-61
2022/12/02 05:01:55;;;;;;;52.63;24.90;;;2.70;99.90;;;;;;5078646;28;20055;-61
2022/12/02 05:04:21;;;;;;;57.65;24.92;;;2.70;99.90;;;;;;5069232;28;20431;-62
2022/12/02 05:06:47;;;;;;;56.72;24.58;;;2.70;99.90;;;;;;5072129;28;20044;-61
2022/12/02 05:09:12;;;;;;;58.05;25.38;;;2.70;99.90;;;;;;5061773;28;20048;-61
2022/12/02 05:11:38;;;;;;;51.38;23.17;;;2.70;99.90;;;;;;5063059;28;20040;-61
2022/12/02 05:14:04;;;;;;;48.88;24.42;;;2.70;99.90;;;;;;5062279;28;20043;-61
2022/12/02 05:16:30;;;;;;;55.53;24.95;;;2.70;99.90;;;;;;5061992;28;20487;-61
2022/12/02 05:18:55;;;;;;;54.20;24.25;;;2.70;99.90;;;;;;5064902;28;20067;-62
2022/12/02 05:21:21;;;;;;;56.97;25.02;;;2.70;99.90;;;;;;5063219;28;20178;-61
2022/12/02 05:23:47;;;;;;;49.53;23.92;;;2.70;99.90;;;;;;5062568;28;20093;-61
2022/12/02 05:26:13;;;;;;;55.80;25.02;;;2.70;99.90;;;;;;5062366;28;20509;-61
2022/12/02 05:28:39;;;;;;;55.83;25.60;;;2.70;99.90;;;;;;5065659;28;20871;-62
2022/12/02 05:31:04;;;;;;;57.25;24.88;;;2.60;99.90;;;;;;5063612;28;20594;-62
2022/12/02 05:33:30;;;;;;;60.97;26.95;;;2.60;99.90;;;;;;5063396;28;20134;-62
2022/12/02 05:35:56;;;;;;;65.45;26.50;;;2.60;99.90;;;;;;5063649;28;20044;-61
2022/12/02 05:38:22;;;;;;;64.18;26.70;;;2.60;99.90;;;;;;5064261;28;20035;-61
2022/12/02 05:40:48;;;;;;;70.22;26.02;;;2.70;99.90;;;;;;5066500;28;20051;-61
2022/12/02 05:43:21;;;;;;;66.97;26.45;;;2.70;99.90;;;;;;5067582;28;20109;-61
2022/12/02 05:45:47;;;;;;;67.50;25.85;;;2.60;99.90;;;;;;5067833;28;20121;-62
2022/12/02 05:48:15;;;;;;;72.47;28.13;;;2.60;99.90;;;;;;5065985;28;20044;-62
2022/12/02 05:50:43;;;;;;;67.80;26.75;;;2.70;99.90;;;;;;5066725;28;20101;-61
2022/12/02 05:53:22;;;;;;;70.05;27.60;;;2.70;99.90;;;;;;5064464;28;20048;-61
2022/12/02 05:55:49;;;;;;;68.65;28.60;;;2.70;99.90;;;;;;5068343;28;21346;-62
2022/12/02 05:58:16;;;;;;;73.57;29.58;;;2.60;99.90;;;;;;5066579;28;20466;-62
2022/12/02 06:00:42;;;;;;;69.68;28.27;;;2.70;99.90;;;;;;5063804;28;20044;-62
2022/12/02 06:03:16;;;;;;;72.15;27.98;;;2.70;99.90;;;;;;5068751;28;20051;-62
2022/12/02 06:05:43;;;;;;;69.40;27.83;;;2.70;99.90;;;;;;5058975;28;20468;-62
2022/12/02 06:08:18;;;;;;;73.18;27.88;;;2.70;99.90;;;;;;5065782;28;20048;-62
2022/12/02 06:10:51;;;;;;;69.03;27.27;;;2.70;99.90;;;;;;5062857;28;20130;-62
2022/12/02 06:13:24;;;;;;;74.80;27.92;;;2.70;99.90;;;;;;5063271;28;20129;-61
2022/12/02 06:15:50;;;;;;;;;;;2.70;99.90;;;;;;5064783;28;20044;-61
2022/12/02 06:18:19;;;;;;;72.03;27.63;;;2.60;99.90;;;;;;5060907;28;19926;-62
2022/12/02 06:20:48;;;;;;;70.28;27.65;;;2.60;99.90;;;;;;5065105;28;20043;-62
2022/12/02 06:23:18;;;;;;;80.38;28.77;;;2.60;99.90;;;;;;5068875;28;20864;-62
2022/12/02 06:25:46;;;;;;;72.72;26.98;;;2.60;99.90;;;;;;5068985;28;20245;-62
2022/12/02 06:28:33;;;;;;;71.53;27.15;;;2.70;99.90;;;;;;5055905;28;20064;-62
2022/12/02 06:31:09;;;;;;;64.40;26.30;;;2.70;99.90;;;;;;5063231;28;20044;-62
2022/12/02 06:33:37;;;;;;;73.22;28.13;;;2.70;99.90;;;;;;5060374;28;20043;-62
2022/12/02 06:36:25;;;;;;;68.20;27.10;;;2.70;99.90;;;;;;5065690;28;20045;-61
2022/12/02 06:39:14;;;;;;;70.55;27.50;;;2.60;99.90;;;;;;5057027;28;20048;-62
2022/12/02 06:41:40;;;;;;;73.97;28.15;;;2.70;99.90;;;;;;5058386;28;20047;-60
2022/12/02 06:47:36;;;;;;;69.20;28.15;;;2.70;99.90;;;;;;5062574;28;20572;-62
2022/12/02 06:50:05;;;;;;;67.93;27.88;;;2.60;99.90;;;;;;5065849;28;20086;-62
2022/12/02 06:52:38;;;;;;;76.05;29.27;;;2.70;99.90;;;;;;5062431;28;20051;-61
2022/12/02 06:55:34;;;;;;;77.68;28.13;;;2.70;99.90;;;;;;5064105;28;20114;-62
2022/12/02 06:58:13;;;;;;;73.28;27.95;;;2.70;99.90;;;;;;5065523;28;20041;-61
2022/12/02 07:00:39;;;;;;;71.57;27.00;;;2.70;99.90;;;;;;5068829;28;20506;-62
2022/12/02 07:03:29;;;;;;;69.80;27.45;;;2.70;99.90;;;;;;5063019;28;20052;-61
2022/12/02 07:06:08;;;;;;;77.20;28.13;;;2.70;99.90;;;;;;5070701;28;20045;-61
2022/12/02 07:08:34;;;;;;;68.30;28.63;;;2.70;99.90;;;;;;5056144;28;21321;-61
2022/12/02 07:10:59;;;;;;;73.00;28.83;;;2.70;99.90;;;;;;5064647;28;20040;-61
2022/12/02 07:13:27;;;;;;;69.93;27.42;;;2.70;99.90;;;;;;5059898;28;20403;-61
2022/12/02 07:15:53;;;;;;;70.40;28.48;;;2.80;99.90;;;;;;5070755;28;20040;-59
2022/12/02 07:18:21;;;;;;;71.85;28.35;;;2.70;99.90;;;;;;5072810;28;20113;-60
2022/12/02 07:20:47;;;;;;;67.60;26.70;;;2.70;99.90;;;;;;5075582;28;20036;-60
2022/12/02 07:23:15;;;;;;;75.50;28.38;;;2.70;99.90;;;;;;5073367;28;20090;-58
2022/12/02 07:25:43;;;;;;;64.05;26.63;;;2.80;99.90;;;;;;5072101;28;20052;-60
2022/12/02 07:28:35;;;;;;;69.47;26.98;;;2.80;99.90;;;;;;5076958;28;20079;-60
2022/12/02 07:31:18;;;;;;;70.22;27.52;;;2.80;99.90;;;;;;5077319;28;23550;-61
2022/12/02 07:33:45;;;;;;;69.95;27.13;;;2.80;99.90;;;;;;5071965;28;20375;-60
2022/12/02 07:36:10;;;;;;;73.22;28.10;;;2.80;99.90;;;;;;5073032;28;21297;-60
2022/12/02 07:38:37;;;;;;;74.47;28.83;;;2.90;99.90;;;;;;5072191;28;20139;-60
2022/12/02 07:41:04;;;;;;;63.85;26.85;;;2.90;99.90;;;;;;5065007;28;20048;-60
2022/12/02 07:43:30;;;;;;;67.82;28.88;;;2.90;99.90;;;;;;5071366;28;20037;-60
2022/12/02 07:45:56;;;;;;;64.15;26.15;;;2.90;99.90;;;;;;5069650;28;20044;-60
2022/12/02 07:48:22;;;;;;;68.40;26.58;;;2.90;99.90;;;;;;5072671;28;20074;-60
2022/12/02 07:50:48;;;;;;;58.55;25.73;;;2.90;99.90;;;;;;5079149;28;20044;-60
2022/12/02 07:53:14;;;;;;;64.18;26.73;;;2.90;99.90;;;;;;5074590;28;20044;-59
2022/12/02 07:55:40;;;;;;;67.00;27.90;;;2.90;99.90;;;;;;5068629;28;20044;-60
2022/12/02 07:58:06;;;;;;;57.72;26.05;;;2.90;99.90;;;;;;5071683;28;20402;-60
2022/12/02 08:00:32;;;;;;;65.25;26.77;;;2.80;99.90;;;;;;5070757;28;20049;-60
2022/12/02 08:02:57;;;;;;;64.70;27.08;;;2.80;99.90;;;;;;5071550;28;20388;-60
2022/12/02 08:05:24;;;;;;;74.38;28.40;;;2.90;99.90;;;;;;5055474;28;20084;-60
2022/12/02 08:07:50;;;;;;;64.78;27.92;;;2.80;99.90;;;;;;5061477;28;20055;-60
2022/12/02 08:10:16;;;;;;;68.95;27.92;;;2.90;99.90;;;;;;5068567;28;20044;-60
2022/12/02 08:12:42;;;;;;;67.75;28.60;;;2.80;99.90;;;;;;5065492;28;20059;-60
2022/12/02 08:15:09;;;;;;;71.40;28.30;;;2.80;99.90;;;;;;5068425;28;20128;-59
2022/12/02 08:17:36;;;;;;;65.93;28.20;;;2.80;99.90;;;;;;5070018;28;20036;-61
2022/12/02 08:20:04;;;;;;;64.78;27.95;;;2.70;99.90;;;;;;5071496;28;20503;-58
2022/12/02 08:22:30;;;;;;;60.88;26.67;;;2.70;99.90;;;;;;5069696;28;20039;-60
2022/12/02 08:24:56;;;;;;;69.70;26.75;;;2.70;99.90;;;;;;5067125;28;20164;-60
2022/12/02 08:27:22;;;;;;;62.08;26.17;;;2.70;99.90;;;;;;5071561;28;20066;-60
2022/12/02 08:29:48;;;;;;;61.00;26.00;;;2.60;99.90;;;;;;5070883;28;20423;-61
2022/12/02 08:32:18;;;;;;;66.65;25.35;;;2.60;99.90;;;;;;5068070;28;20056;-60
2022/12/02 08:34:44;;;;;;;55.33;23.73;;;2.60;99.90;;;;;;5067499;28;20052;-60
2022/12/02 08:37:11;;;;;;;55.03;23.38;;;2.50;99.90;;;;;;5068975;28;20044;-60
2022/12/02 08:39:38;;;;;;;54.72;23.05;;;2.50;99.90;;;;;;5064900;28;20055;-60
2022/12/02 08:42:05;;;;;;;51.55;22.35;;;2.50;99.90;;;;;;5067116;28;20055;-60
2022/12/02 08:44:31;;;;;;;51.55;22.73;;;2.50;99.90;;;;;;5067984;28;20054;-61
2022/12/02 08:46:56;;;;;;;52.38;23.85;;;2.40;99.90;;;;;;5071820;28;20090;-59
2022/12/02 08:49:23;;;;;;;52.92;22.67;;;2.40;99.90;;;;;;5068532;28;20122;-60
2022/12/02 08:51:48;;;;;;;55.85;23.20;;;2.40;99.90;;;;;;5072078;28;20036;-61
2022/12/02 08:54:15;;;;;;;54.10;23.83;;;2.40;99.90;;;;;;5069296;28;21024;-61
2022/12/02 08:56:42;;;;;;;55.25;24.77;;;2.40;99.90;;;;;;5068675;28;20043;-61
2022/12/02 08:59:08;;;;;;;56.03;23.63;;;2.30;99.90;;;;;;5066776;28;20051;-61
2022/12/02 09:01:33;;;;;;;53.40;22.92;;;2.30;99.90;;;;;;5069844;28;20120;-60
2022/12/02 09:04:00;;;;;;;53.13;23.30;;;2.30;99.90;;;;;;5069079;28;20089;-61
2022/12/02 09:06:25;;;;;;;55.55;23.25;;;2.30;99.90;;;;;;5069024;28;20041;-61
2022/12/02 09:08:52;;;;;;;49.53;22.10;;;2.30;99.90;;;;;;5066575;28;20209;-60
2022/12/02 09:11:18;;;;;;;50.55;22.55;;;2.30;99.90;;;;;;5068453;28;20098;-61
2022/12/02 09:13:44;;;;;;;49.00;21.42;;;2.30;99.90;;;;;;5071358;28;20409;-60
2022/12/02 09:16:09;;;;;;;55.88;22.45;;;2.30;99.90;;;;;;5067868;28;20033;-61
2022/12/02 09:18:35;;;;;;;57.20;22.85;;;2.30;99.90;;;;;;5065476;28;20100;-60
2022/12/02 09:21:01;;;;;;;50.40;22.02;;;2.30;99.90;;;;;;5072281;28;20135;-60
2022/12/02 09:23:30;;;;;;;55.72;22.55;;;2.30;99.90;;;;;;5074231;28;20036;-60
2022/12/02 09:25:55;;;;;;;56.55;21.75;;;2.30;99.90;;;;;;5074388;28;20070;-60
2022/12/02 09:28:22;;;;;;;54.00;21.63;;;2.30;99.90;;;;;;5069582;28;20048;-60
2022/12/02 09:30:49;;;;;;;52.30;20.65;;;2.30;99.90;;;;;;5067749;28;20098;-60
2022/12/02 09:33:15;;;;;;;55.55;22.52;;;2.20;99.90;;;;;;5070500;28;20133;-58
2022/12/02 09:35:41;;;;;;;64.68;23.67;;;2.20;99.90;;;;;;5065215;28;20212;-58
2022/12/02 09:38:07;;;;;;;56.35;23.58;;;2.20;99.90;;;;;;5066946;28;20036;-58
2022/12/02 09:40:33;;;;;;;52.95;20.80;;;2.20;99.90;;;;;;5067246;28;20143;-58
2022/12/02 09:43:01;;;;;;;52.60;21.80;;;2.20;99.90;;;;;;5067071;28;20055;-58
2022/12/02 09:45:27;;;;;;;58.55;22.55;;;2.30;99.90;;;;;;5069284;28;20121;-57
2022/12/02 09:47:54;;;;;;;52.20;22.42;;;2.20;99.90;;;;;;5067612;28;20078;-59
2022/12/02 09:50:20;;;;;;;55.20;22.73;;;2.20;99.90;;;;;;5069740;28;20143;-58
2022/12/02 09:52:46;;;;;;;59.38;22.50;;;2.30;99.90;;;;;;5050338;28;20062;-58
2022/12/02 09:55:15;;;;;;;55.28;23.30;;;2.30;99.90;;;;;;5070073;28;20764;-58
2022/12/02 09:57:41;;;;;;;55.25;22.83;;;2.30;99.90;;;;;;5069764;28;20074;-59
2022/12/02 10:00:19;;;;;;;57.55;22.83;;;2.30;99.90;;;;;;5061033;28;20053;-59
2022/12/02 10:02:50;;;;;;;57.70;24.25;;;2.30;99.90;;;;;;5057428;28;20063;-58
2022/12/02 10:05:23;;;;;;;61.25;24.38;;;2.30;99.90;;;;;;5057396;28;20052;-58
2022/12/02 10:07:51;;;;;;;62.92;24.05;;;2.40;99.90;;;;;;5054049;28;20055;-58
2022/12/02 10:10:23;;;;;;;55.00;24.13;;;2.40;99.90;;;;;;5064179;28;20060;-58
2022/12/02 10:12:49;;;;;;;63.45;24.58;;;2.50;99.90;;;;;;5066240;28;20064;-59
2022/12/02 10:15:20;;;;;;;53.05;22.80;;;2.60;99.90;;;;;;5065093;28;20559;-58
2022/12/02 10:17:46;;;;;;;53.75;23.55;;;2.60;99.90;;;;;;5065287;28;20040;-58
2022/12/02 10:20:20;;;;;;;56.85;23.98;;;2.70;99.90;;;;;;5067113;28;20482;-59
2022/12/02 10:23:15;;;;;;;52.75;23.63;;;2.70;99.90;;;;;;5070306;28;20048;-58
2022/12/02 10:25:47;;;;;;;55.03;23.10;;;2.60;99.90;;;;;;5068883;28;20106;-58
2022/12/02 10:28:32;;;;;;;54.05;23.42;;;2.60;99.90;;;;;;5067808;28;20612;-58
2022/12/02 10:31:03;;;;;;;50.85;22.33;;;2.60;99.90;;;;;;5067611;28;20044;-58
2022/12/02 10:33:32;;;;;;;51.60;23.25;;;2.50;99.90;;;;;;5063777;28;20048;-58
2022/12/02 10:35:59;;;;;;;51.28;23.30;;;2.50;99.90;;;;;;5065055;28;20037;-58
2022/12/02 10:38:29;;;;;;;50.60;24.10;;;2.50;99.90;;;;;;5066771;28;20506;-59
2022/12/02 10:41:13;;;;;;;54.97;25.40;;;2.50;99.90;;;;;;5060819;28;20141;-59
2022/12/02 10:43:40;;;;;;;53.95;24.33;;;2.50;99.90;;;;;;5062681;28;20064;-59
2022/12/02 10:46:06;;;;;;;52.25;25.52;;;2.50;99.90;;;;;;5066737;28;20040;-59
2022/12/02 10:48:34;;;;;;;52.63;23.27;;;2.50;99.90;;;;;;5071430;28;20552;-59
2022/12/02 10:51:00;;;;;;;56.00;25.80;;;2.50;99.90;;;;;;5066162;28;20063;-58
2022/12/02 10:53:28;;;;;;;52.95;25.73;;;2.60;99.90;;;;;;5069915;28;20482;-58
2022/12/02 10:55:55;;;;;;;55.67;25.65;;;2.60;99.90;;;;;;5065566;28;20048;-58
2022/12/02 10:58:30;;;;;;;52.25;24.52;;;2.60;99.90;;;;;;5073503;28;20044;-58
2022/12/02 11:00:57;;;;;;;54.55;26.10;;;2.60;99.90;;;;;;5069824;28;20067;-59
2022/12/02 11:03:24;;;;;;;49.15;24.52;;;2.60;99.90;;;;;;5073077;28;20461;-58
2022/12/02 11:05:50;;;;;;;52.00;25.17;;;2.70;99.90;;;;;;5069085;28;20838;-59
2022/12/02 11:08:20;;;;;;;52.47;25.75;;;2.70;99.90;;;;;;5070670;28;20047;-58
2022/12/02 11:10:50;;;;;;;55.35;27.50;;;2.70;99.90;;;;;;5068006;28;20080;-58
2022/12/02 11:13:46;;;;;;;57.20;28.05;;;2.70;99.90;;;;;;5062302;28;20050;-59
2022/12/02 11:16:27;;;;;;;55.30;27.45;;;2.70;99.90;;;;;;5064338;28;20036;-58
2022/12/02 11:19:05;;;;;;;55.28;28.70;;;2.80;99.90;;;;;;5065724;28;20060;-58
2022/12/02 11:21:39;;;;;;;56.45;28.33;;;2.80;99.90;;;;;;5067784;28;20060;-59
2022/12/02 11:24:26;;;;;;;58.53;29.17;;;2.80;99.90;;;;;;5067270;28;20626;-59
2022/12/02 11:26:58;;;;;;;58.70;30.02;;;2.80;99.90;;;;;;5063084;28;20492;-59
2022/12/02 11:29:26;;;;;;;56.97;29.80;;;2.80;99.90;;;;;;5063500;28;20079;-58
2022/12/02 11:32:01;;;;;;;56.60;29.42;;;2.90;99.90;;;;;;5069902;28;20406;-58
2022/12/02 11:34:41;;;;;;;53.97;29.02;;;2.90;99.90;;;;;;5067999;28;20537;-58
2022/12/02 11:37:33;;;;;;;55.83;29.48;;;2.90;99.90;;;;;;5064296;28;23684;-58
2022/12/02 11:40:19;;;;;;;57.53;30.25;;;2.90;99.90;;;;;;5054711;28;20048;-59
2022/12/02 11:42:45;;;;;;;54.40;29.10;;;2.90;99.90;;;;;;5043319;28;20063;-59
2022/12/02 11:45:17;;;;;;;53.25;28.95;;;3.00;99.90;;;;;;5066274;28;20402;-58
2022/12/02 11:47:53;;;;;;;55.13;29.35;;;3.00;99.90;;;;;;5073149;28;20526;-58
2022/12/02 11:50:28;;;;;;;53.67;29.17;;;3.00;99.90;;;;;;5069748;28;20098;-58
2022/12/02 11:53:14;;;;;;;51.75;27.70;;;3.00;99.90;;;;;;5070436;28;20044;-59
2022/12/02 11:55:43;;;;;;;51.92;28.58;;;3.00;99.90;;;;;;5070410;28;20045;-58
2022/12/02 11:58:27;;;;;;;51.17;28.80;;;3.00;99.90;;;;;;5068933;28;20117;-58
2022/12/02 12:01:02;;;;;;;54.70;28.30;;;3.00;99.90;;;;;;5072190;28;20108;-58
2022/12/02 12:03:28;;;;;;;49.42;27.77;;;3.00;99.90;;;;;;5071445;28;20047;-58
2022/12/02 12:06:13;;;;;;;56.88;29.13;;;3.10;99.90;;;;;;5070196;28;20051;-59
2022/12/02 12:08:45;;;;;;;48.63;27.40;;;3.00;99.90;;;;;;5068904;28;20051;-58
2022/12/02 12:11:26;;;;;;;49.10;28.02;;;3.10;99.90;;;;;;5068819;28;20052;-59
2022/12/02 12:14:17;;;;;;;49.15;27.30;;;3.10;99.90;;;;;;5070188;28;20107;-57
2022/12/02 12:16:47;;;;;;;48.78;27.10;;;3.10;99.90;;;;;;5063936;28;20770;-58
2022/12/02 12:19:15;;;;;;;50.55;26.27;;;3.10;99.90;;;;;;5071501;28;20051;-58
2022/12/02 12:21:47;;;;;;;50.10;26.20;;;3.10;99.90;;;;;;5070811;28;20046;-59
2022/12/02 12:24:16;;;;;;;47.28;26.10;;;3.10;99.90;;;;;;5067617;28;20043;-59
2022/12/02 12:26:43;;;;;;;43.40;24.40;;;3.10;99.90;;;;;;5067810;28;20708;-58
2022/12/02 12:29:09;;;;;;;45.55;25.60;;;3.10;99.90;;;;;;5076721;28;20048;-58
2022/12/02 12:31:36;;;;;;;40.03;22.42;;;3.10;99.90;;;;;;5070688;28;20040;-58
2022/12/02 12:34:01;;;;;;;41.97;22.98;;;3.00;99.90;;;;;;5058346;28;20087;-58
2022/12/02 12:36:28;;;;;;;40.97;22.67;;;3.10;99.90;;;;;;5025392;28;20044;-57
2022/12/02 12:38:54;;;;;;;37.50;21.52;;;3.10;99.90;;;;;;5062204;28;20052;-57
2022/12/02 12:41:20;;;;;;;42.72;22.98;;;3.10;99.90;;;;;;5069713;28;20044;-59
2022/12/02 12:43:46;;;;;;;39.70;21.92;;;3.10;99.90;;;;;;5066957;28;20055;-59
2022/12/02 12:46:12;;;;;;;36.05;20.58;;;3.00;99.90;;;;;;5068026;28;20497;-58
2022/12/02 12:48:38;;;;;;;35.65;21.20;;;3.00;99.90;;;;;;5070715;28;20056;-59
2022/12/02 12:51:04;;;;;;;37.40;20.90;;;3.00;99.90;;;;;;5067902;28;20057;-59